Webcam Meteoipassi more information Webcam Meteoipassi


Pisa torre orologio more information Pisa torre orologio


altri nostri siti meteo:

Pomeziameteo 1Sito sul meteo

Pomeziameteo DashboardSito sul meteo

Caput FrigorisSito sul meteo

BarcellonameteoSito sul meteo

MeteoipassiSito sul meteo

ViterbometeoSito sul meteo

MeteotortoretoSito sul meteo

TortoretometeolidoSito sul meteo

MeteoGonzagaSito sul meteo



Nessuna attenzione particolare richiesta.    Non ci sono allerte meteo

Report METAR

   
LIRQ - Firenze
Dati ricevuti: Jun 24 2018 2:50 am
Sereno  
Sereno  
   Vento: Variabile 1.9 km/h
Vento: Variabile 1.9 km/h
Temperatura: 15°C
P.to Rugiada: 11°C
Umidita: 77%
Barometro: 1018 hPa
Visibilita: oltre 10 km
dettagli cloud: Sereno
LIRQ 240050Z VRB01KT CAVOK 15/11 Q1018
LIRP - Lucca
Dati ricevuti: Jun 24 2018 2:15 am
Sereno  
Sereno  
   Vento: SE 16.7 km/h
Vento: SE 16.7 km/h
Temperatura: 18°C
P.to Rugiada: 11°C
Umidita: 64%
Barometro: 1017 hPa
Visibilita: oltre 10 km
dettagli cloud: Sereno
LIRP 240015Z 12009KT CAVOK 18/11 Q1017 NOSIG
LIRP - Livorno
Dati ricevuti: Jun 24 2018 2:15 am
Sereno  
Sereno  
   Vento: SE 16.7 km/h
Vento: SE 16.7 km/h
Temperatura: 18°C
P.to Rugiada: 11°C
Umidita: 64%
Barometro: 1017 hPa
Visibilita: oltre 10 km
dettagli cloud: Sereno
LIRP 240015Z 12009KT CAVOK 18/11 Q1017 NOSIG
LIMP - Parma
Dati ricevuti: Jun 23 2018 8:50 pm
DATI Obsoleti
Sereno  
Sereno  
   Vento: Oriente 9.3 km/h
Vento: Oriente 9.3 km/h
Temperatura: 22°C
P.to Rugiada: 10°C
Umidita: 47%
Barometro: 1017 hPa
Visibilita: oltre 10 km
dettagli cloud: Sereno
LIMP 231850Z 10005KT CAVOK 22/10 Q1017
LIRF - Roma
Dati ricevuti: Jun 24 2018 2:50 am
Sereno  
Sereno  
   Vento: Variabile 5.6 km/h
Vento: Variabile 5.6 km/h
Temperatura: 18°C
P.to Rugiada: 11°C
Umidita: 64%
Barometro: 1016 hPa
Visibilita: oltre 10 km
dettagli cloud: Sereno
LIRF 240050Z VRB03KT CAVOK 18/11 Q1016 NOSIG
 

Script sviluppato da  Saratoga-weather.org Adattato per il modello da  Weerstation Leuven

Potete trovare le nostre info meteo anche a:

European Weather Network

Weather Underground

AWEKAS

HAMweather, WeatherForYou, PWS Weather

Strumentazione usata:

Stazione meteo
Oregon Scientific WMR88

Programma gestore dati meteo
WVIEW

Server per i dati meteo
WDS-5

Provider
Anemos WDS-5

Oregon Scientific WMR88

WVIEW

WDS-5

Anemos WDS-5